sensor_id;sensor_type;location;lat;lon;timestamp;temperature;humidity
42979;DHT22;28616;44.746;19.678;2023-03-14T00:00:48;7.90;59.10
42979;DHT22;28616;44.746;19.678;2023-03-14T00:03:14;7.90;60.40
42979;DHT22;28616;44.746;19.678;2023-03-14T00:05:39;7.80;59.30
42979;DHT22;28616;44.746;19.678;2023-03-14T00:08:05;7.80;59.20
42979;DHT22;28616;44.746;19.678;2023-03-14T00:10:31;7.80;59.40
42979;DHT22;28616;44.746;19.678;2023-03-14T00:12:56;7.80;59.40
42979;DHT22;28616;44.746;19.678;2023-03-14T00:15:22;7.80;59.20
42979;DHT22;28616;44.746;19.678;2023-03-14T00:17:48;7.90;59.20
42979;DHT22;28616;44.746;19.678;2023-03-14T00:20:13;7.80;59.40
42979;DHT22;28616;44.746;19.678;2023-03-14T00:22:40;7.80;59.50
42979;DHT22;28616;44.746;19.678;2023-03-14T00:25:09;7.80;59.10
42979;DHT22;28616;44.746;19.678;2023-03-14T00:27:35;7.80;59.10
42979;DHT22;28616;44.746;19.678;2023-03-14T00:30:02;7.80;59.50
42979;DHT22;28616;44.746;19.678;2023-03-14T00:32:29;7.80;59.00
42979;DHT22;28616;44.746;19.678;2023-03-14T00:34:54;7.80;58.80
42979;DHT22;28616;44.746;19.678;2023-03-14T00:37:20;7.80;58.70
42979;DHT22;28616;44.746;19.678;2023-03-14T00:39:46;7.80;58.60
42979;DHT22;28616;44.746;19.678;2023-03-14T00:42:12;7.80;58.30
42979;DHT22;28616;44.746;19.678;2023-03-14T00:44:37;7.80;58.60
42979;DHT22;28616;44.746;19.678;2023-03-14T00:47:03;7.80;58.50
42979;DHT22;28616;44.746;19.678;2023-03-14T00:49:29;7.80;59.10
42979;DHT22;28616;44.746;19.678;2023-03-14T00:51:54;7.70;59.60
42979;DHT22;28616;44.746;19.678;2023-03-14T00:54:20;7.60;60.10
42979;DHT22;28616;44.746;19.678;2023-03-14T00:56:47;7.60;59.90
42979;DHT22;28616;44.746;19.678;2023-03-14T00:59:12;7.60;59.80
42979;DHT22;28616;44.746;19.678;2023-03-14T01:01:39;7.50;59.90
42979;DHT22;28616;44.746;19.678;2023-03-14T01:04:05;7.50;60.40
42979;DHT22;28616;44.746;19.678;2023-03-14T01:06:31;7.40;60.60
42979;DHT22;28616;44.746;19.678;2023-03-14T01:08:57;7.50;60.50
42979;DHT22;28616;44.746;19.678;2023-03-14T01:11:25;7.50;60.30
42979;DHT22;28616;44.746;19.678;2023-03-14T01:13:52;7.50;60.00
42979;DHT22;28616;44.746;19.678;2023-03-14T01:16:19;7.50;60.10
42979;DHT22;28616;44.746;19.678;2023-03-14T01:18:46;7.50;60.20
42979;DHT22;28616;44.746;19.678;2023-03-14T01:21:29;7.50;59.80
42979;DHT22;28616;44.746;19.678;2023-03-14T01:23:57;7.50;60.10
42979;DHT22;28616;44.746;19.678;2023-03-14T01:26:25;7.50;60.30
42979;DHT22;28616;44.746;19.678;2023-03-14T01:28:52;7.50;60.40
42979;DHT22;28616;44.746;19.678;2023-03-14T01:31:18;7.40;60.10
42979;DHT22;28616;44.746;19.678;2023-03-14T01:33:44;7.40;60.50
42979;DHT22;28616;44.746;19.678;2023-03-14T01:36:10;7.40;61.30
42979;DHT22;28616;44.746;19.678;2023-03-14T01:38:37;7.30;61.40
42979;DHT22;28616;44.746;19.678;2023-03-14T01:41:03;7.30;61.50
42979;DHT22;28616;44.746;19.678;2023-03-14T01:43:30;7.20;61.50
42979;DHT22;28616;44.746;19.678;2023-03-14T01:51:34;7.20;61.80
42979;DHT22;28616;44.746;19.678;2023-03-14T01:54:16;7.20;61.30
42979;DHT22;28616;44.746;19.678;2023-03-14T01:56:48;7.20;61.60
42979;DHT22;28616;44.746;19.678;2023-03-14T01:59:15;7.20;61.60
42979;DHT22;28616;44.746;19.678;2023-03-14T02:01:43;7.20;61.80
42979;DHT22;28616;44.746;19.678;2023-03-14T02:04:11;7.10;61.70
42979;DHT22;28616;44.746;19.678;2023-03-14T02:07:05;7.10;61.80
42979;DHT22;28616;44.746;19.678;2023-03-14T02:09:33;7.10;62.00
42979;DHT22;28616;44.746;19.678;2023-03-14T02:11:59;7.10;62.30
42979;DHT22;28616;44.746;19.678;2023-03-14T02:14:33;7.00;63.00
42979;DHT22;28616;44.746;19.678;2023-03-14T02:17:01;7.00;63.30
42979;DHT22;28616;44.746;19.678;2023-03-14T02:19:59;6.90;63.20
42979;DHT22;28616;44.746;19.678;2023-03-14T02:22:22;6.90;64.40
42979;DHT22;28616;44.746;19.678;2023-03-14T02:27:34;6.90;64.40
42979;DHT22;28616;44.746;19.678;2023-03-14T02:30:05;6.90;65.00
42979;DHT22;28616;44.746;19.678;2023-03-14T02:32:33;7.00;65.00
42979;DHT22;28616;44.746;19.678;2023-03-14T02:35:03;7.00;65.70
42979;DHT22;28616;44.746;19.678;2023-03-14T02:37:36;6.90;64.90
42979;DHT22;28616;44.746;19.678;2023-03-14T02:40:02;6.80;64.70
42979;DHT22;28616;44.746;19.678;2023-03-14T02:42:30;6.80;64.80
42979;DHT22;28616;44.746;19.678;2023-03-14T02:45:46;6.90;65.20
42979;DHT22;28616;44.746;19.678;2023-03-14T02:47:54;6.90;65.30
42979;DHT22;28616;44.746;19.678;2023-03-14T02:50:23;7.00;64.40
42979;DHT22;28616;44.746;19.678;2023-03-14T02:52:50;7.00;64.20
42979;DHT22;28616;44.746;19.678;2023-03-14T02:55:21;7.00;64.00
42979;DHT22;28616;44.746;19.678;2023-03-14T02:57:46;7.00;64.30
42979;DHT22;28616;44.746;19.678;2023-03-14T03:00:12;7.10;64.20
42979;DHT22;28616;44.746;19.678;2023-03-14T03:02:38;7.00;64.20
42979;DHT22;28616;44.746;19.678;2023-03-14T03:05:04;7.00;64.20
42979;DHT22;28616;44.746;19.678;2023-03-14T03:07:30;7.00;63.90
42979;DHT22;28616;44.746;19.678;2023-03-14T03:09:55;7.10;64.80
42979;DHT22;28616;44.746;19.678;2023-03-14T03:12:21;7.00;64.20
42979;DHT22;28616;44.746;19.678;2023-03-14T03:14:47;7.00;64.20
42979;DHT22;28616;44.746;19.678;2023-03-14T03:17:12;7.00;64.40
42979;DHT22;28616;44.746;19.678;2023-03-14T03:19:38;7.00;64.30
42979;DHT22;28616;44.746;19.678;2023-03-14T03:22:04;7.00;66.20
42979;DHT22;28616;44.746;19.678;2023-03-14T03:24:30;7.00;66.20
42979;DHT22;28616;44.746;19.678;2023-03-14T03:26:55;6.90;66.50
42979;DHT22;28616;44.746;19.678;2023-03-14T03:29:21;6.90;66.30
42979;DHT22;28616;44.746;19.678;2023-03-14T03:31:47;6.80;66.90
42979;DHT22;28616;44.746;19.678;2023-03-14T03:34:13;6.80;66.80
42979;DHT22;28616;44.746;19.678;2023-03-14T03:36:39;6.70;66.60
42979;DHT22;28616;44.746;19.678;2023-03-14T03:39:05;6.60;67.20
42979;DHT22;28616;44.746;19.678;2023-03-14T03:41:30;6.60;68.00
42979;DHT22;28616;44.746;19.678;2023-03-14T03:43:56;6.60;67.60
42979;DHT22;28616;44.746;19.678;2023-03-14T03:46:22;6.60;68.00
42979;DHT22;28616;44.746;19.678;2023-03-14T03:48:48;6.50;68.90
42979;DHT22;28616;44.746;19.678;2023-03-14T03:51:15;6.40;68.30
42979;DHT22;28616;44.746;19.678;2023-03-14T03:53:42;6.30;69.40
42979;DHT22;28616;44.746;19.678;2023-03-14T03:56:09;6.30;70.70
42979;DHT22;28616;44.746;19.678;2023-03-14T03:58:35;6.20;71.00
42979;DHT22;28616;44.746;19.678;2023-03-14T04:01:00;6.30;70.70
42979;DHT22;28616;44.746;19.678;2023-03-14T04:03:26;6.20;71.10
42979;DHT22;28616;44.746;19.678;2023-03-14T04:06:03;6.20;70.90
42979;DHT22;28616;44.746;19.678;2023-03-14T04:08:29;6.20;71.90
42979;DHT22;28616;44.746;19.678;2023-03-14T04:10:59;6.20;71.80
42979;DHT22;28616;44.746;19.678;2023-03-14T04:13:26;6.20;72.20
42979;DHT22;28616;44.746;19.678;2023-03-14T04:15:53;6.20;72.40
42979;DHT22;28616;44.746;19.678;2023-03-14T04:18:19;6.10;72.30
42979;DHT22;28616;44.746;19.678;2023-03-14T04:20:45;6.10;73.00
42979;DHT22;28616;44.746;19.678;2023-03-14T04:23:11;6.10;73.50
42979;DHT22;28616;44.746;19.678;2023-03-14T04:25:37;6.20;73.80
42979;DHT22;28616;44.746;19.678;2023-03-14T04:28:03;6.20;73.70
42979;DHT22;28616;44.746;19.678;2023-03-14T04:30:29;6.20;73.80
42979;DHT22;28616;44.746;19.678;2023-03-14T04:32:55;6.20;72.80
42979;DHT22;28616;44.746;19.678;2023-03-14T04:35:21;6.20;73.80
42979;DHT22;28616;44.746;19.678;2023-03-14T04:37:46;6.30;73.80
42979;DHT22;28616;44.746;19.678;2023-03-14T04:40:14;6.30;73.90
42979;DHT22;28616;44.746;19.678;2023-03-14T04:42:40;6.30;74.40
42979;DHT22;28616;44.746;19.678;2023-03-14T04:45:07;6.40;75.70
42979;DHT22;28616;44.746;19.678;2023-03-14T04:47:33;6.40;75.00
42979;DHT22;28616;44.746;19.678;2023-03-14T04:49:59;6.40;75.70
42979;DHT22;28616;44.746;19.678;2023-03-14T04:52:25;6.50;76.00
42979;DHT22;28616;44.746;19.678;2023-03-14T04:54:51;6.50;76.70
42979;DHT22;28616;44.746;19.678;2023-03-14T04:57:17;6.50;76.60
42979;DHT22;28616;44.746;19.678;2023-03-14T04:59:42;6.50;76.60
42979;DHT22;28616;44.746;19.678;2023-03-14T05:02:08;6.50;77.40
42979;DHT22;28616;44.746;19.678;2023-03-14T05:04:34;6.50;77.80
42979;DHT22;28616;44.746;19.678;2023-03-14T05:07:00;6.40;78.10
42979;DHT22;28616;44.746;19.678;2023-03-14T05:09:26;6.50;79.10
42979;DHT22;28616;44.746;19.678;2023-03-14T05:11:52;6.40;79.20
42979;DHT22;28616;44.746;19.678;2023-03-14T05:14:17;6.40;78.10
42979;DHT22;28616;44.746;19.678;2023-03-14T05:16:43;6.50;77.80
42979;DHT22;28616;44.746;19.678;2023-03-14T05:19:10;6.50;77.30
42979;DHT22;28616;44.746;19.678;2023-03-14T05:21:36;6.60;76.00
42979;DHT22;28616;44.746;19.678;2023-03-14T05:24:02;6.60;75.40
42979;DHT22;28616;44.746;19.678;2023-03-14T05:26:28;6.60;74.20
42979;DHT22;28616;44.746;19.678;2023-03-14T05:28:54;6.70;74.00
42979;DHT22;28616;44.746;19.678;2023-03-14T05:31:19;6.80;73.30
42979;DHT22;28616;44.746;19.678;2023-03-14T05:33:45;6.80;73.00
42979;DHT22;28616;44.746;19.678;2023-03-14T05:36:11;6.80;71.80
42979;DHT22;28616;44.746;19.678;2023-03-14T05:38:37;6.80;72.70
42979;DHT22;28616;44.746;19.678;2023-03-14T05:41:03;6.90;72.50
42979;DHT22;28616;44.746;19.678;2023-03-14T05:43:29;6.90;71.90
42979;DHT22;28616;44.746;19.678;2023-03-14T05:45:54;6.90;72.00
42979;DHT22;28616;44.746;19.678;2023-03-14T05:48:20;7.00;71.70
42979;DHT22;28616;44.746;19.678;2023-03-14T05:50:47;7.00;72.10
42979;DHT22;28616;44.746;19.678;2023-03-14T05:53:13;7.00;72.70
42979;DHT22;28616;44.746;19.678;2023-03-14T05:55:40;7.00;72.50
42979;DHT22;28616;44.746;19.678;2023-03-14T05:58:05;7.00;72.00
42979;DHT22;28616;44.746;19.678;2023-03-14T06:00:31;7.00;72.50
42979;DHT22;28616;44.746;19.678;2023-03-14T06:02:57;7.10;72.70
42979;DHT22;28616;44.746;19.678;2023-03-14T06:05:23;7.10;72.60
42979;DHT22;28616;44.746;19.678;2023-03-14T06:07:48;7.20;72.40
42979;DHT22;28616;44.746;19.678;2023-03-14T06:10:14;7.20;72.70
42979;DHT22;28616;44.746;19.678;2023-03-14T06:12:40;7.30;72.50
42979;DHT22;28616;44.746;19.678;2023-03-14T06:15:06;7.30;72.80
42979;DHT22;28616;44.746;19.678;2023-03-14T06:17:32;7.30;72.40
42979;DHT22;28616;44.746;19.678;2023-03-14T06:19:58;7.40;72.70
42979;DHT22;28616;44.746;19.678;2023-03-14T06:22:23;7.50;72.20
42979;DHT22;28616;44.746;19.678;2023-03-14T06:24:49;7.50;71.90
42979;DHT22;28616;44.746;19.678;2023-03-14T06:27:15;7.70;72.60
42979;DHT22;28616;44.746;19.678;2023-03-14T06:29:41;7.70;71.60
42979;DHT22;28616;44.746;19.678;2023-03-14T06:32:06;7.80;71.10
42979;DHT22;28616;44.746;19.678;2023-03-14T06:34:32;7.90;72.30
42979;DHT22;28616;44.746;19.678;2023-03-14T06:36:58;8.00;71.20
42979;DHT22;28616;44.746;19.678;2023-03-14T06:39:23;8.10;71.50
42979;DHT22;28616;44.746;19.678;2023-03-14T06:41:49;8.20;71.50
42979;DHT22;28616;44.746;19.678;2023-03-14T06:44:15;8.20;71.70
42979;DHT22;28616;44.746;19.678;2023-03-14T06:46:40;8.20;70.90
42979;DHT22;28616;44.746;19.678;2023-03-14T06:49:06;8.30;70.30
42979;DHT22;28616;44.746;19.678;2023-03-14T06:51:32;8.40;70.80
42979;DHT22;28616;44.746;19.678;2023-03-14T06:53:58;8.50;70.10
42979;DHT22;28616;44.746;19.678;2023-03-14T06:56:23;8.60;69.90
42979;DHT22;28616;44.746;19.678;2023-03-14T06:58:49;8.70;69.50
42979;DHT22;28616;44.746;19.678;2023-03-14T07:01:28;8.80;69.00
42979;DHT22;28616;44.746;19.678;2023-03-14T07:03:55;8.90;68.60
42979;DHT22;28616;44.746;19.678;2023-03-14T07:06:21;9.00;69.30
42979;DHT22;28616;44.746;19.678;2023-03-14T07:08:48;9.10;69.60
42979;DHT22;28616;44.746;19.678;2023-03-14T07:11:13;9.20;69.50
42979;DHT22;28616;44.746;19.678;2023-03-14T07:13:39;9.20;68.30
42979;DHT22;28616;44.746;19.678;2023-03-14T07:16:06;9.30;69.70
42979;DHT22;28616;44.746;19.678;2023-03-14T07:18:32;9.30;68.00
42979;DHT22;28616;44.746;19.678;2023-03-14T07:20:58;9.40;68.50
42979;DHT22;28616;44.746;19.678;2023-03-14T07:23:24;9.50;68.70
42979;DHT22;28616;44.746;19.678;2023-03-14T07:25:49;9.60;69.10
42979;DHT22;28616;44.746;19.678;2023-03-14T07:28:16;9.60;68.10
42979;DHT22;28616;44.746;19.678;2023-03-14T07:30:42;9.70;69.00
42979;DHT22;28616;44.746;19.678;2023-03-14T07:33:08;9.80;67.80
42979;DHT22;28616;44.746;19.678;2023-03-14T07:35:34;9.80;67.40
42979;DHT22;28616;44.746;19.678;2023-03-14T07:37:59;9.90;67.80
42979;DHT22;28616;44.746;19.678;2023-03-14T07:40:25;10.00;68.30
42979;DHT22;28616;44.746;19.678;2023-03-14T07:42:51;10.00;67.80
42979;DHT22;28616;44.746;19.678;2023-03-14T07:45:20;10.10;66.20
42979;DHT22;28616;44.746;19.678;2023-03-14T07:47:54;10.20;67.40
42979;DHT22;28616;44.746;19.678;2023-03-14T07:50:25;10.30;66.50
42979;DHT22;28616;44.746;19.678;2023-03-14T07:52:51;10.40;65.20
42979;DHT22;28616;44.746;19.678;2023-03-14T07:55:17;10.50;65.30
42979;DHT22;28616;44.746;19.678;2023-03-14T07:57:43;10.70;65.90
42979;DHT22;28616;44.746;19.678;2023-03-14T08:00:09;10.80;65.40
42979;DHT22;28616;44.746;19.678;2023-03-14T08:02:36;10.90;64.90
42979;DHT22;28616;44.746;19.678;2023-03-14T08:05:03;11.00;63.70
42979;DHT22;28616;44.746;19.678;2023-03-14T08:07:29;11.20;64.00
42979;DHT22;28616;44.746;19.678;2023-03-14T08:09:55;11.40;63.70
42979;DHT22;28616;44.746;19.678;2023-03-14T08:12:20;11.50;62.60
42979;DHT22;28616;44.746;19.678;2023-03-14T08:14:46;11.70;63.10
42979;DHT22;28616;44.746;19.678;2023-03-14T08:17:12;12.00;61.90
42979;DHT22;28616;44.746;19.678;2023-03-14T08:19:38;12.10;61.50
42979;DHT22;28616;44.746;19.678;2023-03-14T08:22:04;12.30;61.30
42979;DHT22;28616;44.746;19.678;2023-03-14T08:24:30;12.30;60.10
42979;DHT22;28616;44.746;19.678;2023-03-14T08:26:56;12.30;60.20
42979;DHT22;28616;44.746;19.678;2023-03-14T08:29:22;12.40;60.00
42979;DHT22;28616;44.746;19.678;2023-03-14T08:31:47;12.50;60.20
42979;DHT22;28616;44.746;19.678;2023-03-14T08:34:14;12.50;59.70
42979;DHT22;28616;44.746;19.678;2023-03-14T08:36:40;12.80;60.60
42979;DHT22;28616;44.746;19.678;2023-03-14T08:39:06;12.90;58.90
42979;DHT22;28616;44.746;19.678;2023-03-14T08:41:33;13.10;58.60
42979;DHT22;28616;44.746;19.678;2023-03-14T08:43:58;13.10;57.60
42979;DHT22;28616;44.746;19.678;2023-03-14T08:46:24;13.20;57.40
42979;DHT22;28616;44.746;19.678;2023-03-14T08:48:50;13.60;57.90
42979;DHT22;28616;44.746;19.678;2023-03-14T08:51:15;13.80;57.00
42979;DHT22;28616;44.746;19.678;2023-03-14T08:53:42;14.00;56.10
42979;DHT22;28616;44.746;19.678;2023-03-14T08:56:08;14.20;55.20
42979;DHT22;28616;44.746;19.678;2023-03-14T08:58:36;14.50;55.60
42979;DHT22;28616;44.746;19.678;2023-03-14T09:01:04;14.70;54.80
42979;DHT22;28616;44.746;19.678;2023-03-14T09:03:30;14.80;54.70
42979;DHT22;28616;44.746;19.678;2023-03-14T09:06:00;14.80;54.70
42979;DHT22;28616;44.746;19.678;2023-03-14T09:08:26;15.00;55.20
42979;DHT22;28616;44.746;19.678;2023-03-14T09:10:52;14.90;53.10
42979;DHT22;28616;44.746;19.678;2023-03-14T09:13:17;15.00;53.70
42979;DHT22;28616;44.746;19.678;2023-03-14T09:15:43;15.10;53.10
42979;DHT22;28616;44.746;19.678;2023-03-14T09:18:09;15.30;53.00
42979;DHT22;28616;44.746;19.678;2023-03-14T09:20:34;15.30;52.50
42979;DHT22;28616;44.746;19.678;2023-03-14T09:23:00;15.50;53.10
42979;DHT22;28616;44.746;19.678;2023-03-14T09:25:26;15.80;53.60
42979;DHT22;28616;44.746;19.678;2023-03-14T09:30:11;16.60;52.30
42979;DHT22;28616;44.746;19.678;2023-03-14T09:32:37;16.70;50.40
42979;DHT22;28616;44.746;19.678;2023-03-14T09:35:03;17.00;50.90
42979;DHT22;28616;44.746;19.678;2023-03-14T09:37:29;17.30;49.50
42979;DHT22;28616;44.746;19.678;2023-03-14T09:39:55;17.60;48.50
42979;DHT22;28616;44.746;19.678;2023-03-14T09:42:23;18.10;48.30
42979;DHT22;28616;44.746;19.678;2023-03-14T09:44:55;18.30;48.00
42979;DHT22;28616;44.746;19.678;2023-03-14T09:47:23;18.60;45.80
42979;DHT22;28616;44.746;19.678;2023-03-14T09:49:50;19.10;47.00
42979;DHT22;28616;44.746;19.678;2023-03-14T09:52:33;19.50;44.50
42979;DHT22;28616;44.746;19.678;2023-03-14T09:55:04;19.60;42.30
42979;DHT22;28616;44.746;19.678;2023-03-14T09:57:32;19.90;42.80
42979;DHT22;28616;44.746;19.678;2023-03-14T10:00:04;20.00;40.10
42979;DHT22;28616;44.746;19.678;2023-03-14T10:02:38;20.00;40.20
42979;DHT22;28616;44.746;19.678;2023-03-14T10:05:15;20.00;40.60
42979;DHT22;28616;44.746;19.678;2023-03-14T10:07:41;20.40;42.10
42979;DHT22;28616;44.746;19.678;2023-03-14T10:10:21;20.70;41.50
42979;DHT22;28616;44.746;19.678;2023-03-14T10:15:35;20.70;38.50
42979;DHT22;28616;44.746;19.678;2023-03-14T10:18:03;20.40;38.00
42979;DHT22;28616;44.746;19.678;2023-03-14T10:20:38;20.30;39.20
42979;DHT22;28616;44.746;19.678;2023-03-14T10:23:06;20.10;38.90
42979;DHT22;28616;44.746;19.678;2023-03-14T10:25:45;20.60;40.10
42979;DHT22;28616;44.746;19.678;2023-03-14T10:28:27;20.80;37.60
42979;DHT22;28616;44.746;19.678;2023-03-14T10:30:54;20.70;37.60
42979;DHT22;28616;44.746;19.678;2023-03-14T10:33:31;20.50;37.80
42979;DHT22;28616;44.746;19.678;2023-03-14T10:38:36;20.00;39.80
42979;DHT22;28616;44.746;19.678;2023-03-14T10:41:19;20.00;39.20
42979;DHT22;28616;44.746;19.678;2023-03-14T10:43:45;20.10;39.70
42979;DHT22;28616;44.746;19.678;2023-03-14T10:46:18;19.90;39.50
42979;DHT22;28616;44.746;19.678;2023-03-14T10:48:44;19.80;40.20
42979;DHT22;28616;44.746;19.678;2023-03-14T10:53:48;19.80;40.60
42979;DHT22;28616;44.746;19.678;2023-03-14T10:56:20;19.80;39.40
42979;DHT22;28616;44.746;19.678;2023-03-14T10:58:48;19.70;39.30
42979;DHT22;28616;44.746;19.678;2023-03-14T11:04:01;19.50;41.20
42979;DHT22;28616;44.746;19.678;2023-03-14T11:06:44;19.60;40.70
42979;DHT22;28616;44.746;19.678;2023-03-14T11:14:55;21.00;39.00
42979;DHT22;28616;44.746;19.678;2023-03-14T11:20:50;21.30;37.90
42979;DHT22;28616;44.746;19.678;2023-03-14T11:23:22;21.30;36.30
42979;DHT22;28616;44.746;19.678;2023-03-14T11:26:19;21.00;36.50
42979;DHT22;28616;44.746;19.678;2023-03-14T11:29:01;20.70;36.90
42979;DHT22;28616;44.746;19.678;2023-03-14T11:31:29;20.80;38.40
42979;DHT22;28616;44.746;19.678;2023-03-14T11:34:08;20.70;38.90
42979;DHT22;28616;44.746;19.678;2023-03-14T11:39:17;20.60;39.00
42979;DHT22;28616;44.746;19.678;2023-03-14T11:41:46;20.50;38.70
42979;DHT22;28616;44.746;19.678;2023-03-14T11:44:21;20.40;39.00
42979;DHT22;28616;44.746;19.678;2023-03-14T11:46:57;20.40;38.60
42979;DHT22;28616;44.746;19.678;2023-03-14T11:51:56;20.20;39.80
42979;DHT22;28616;44.746;19.678;2023-03-14T11:57:10;20.30;40.10
42979;DHT22;28616;44.746;19.678;2023-03-14T11:59:50;20.30;39.60
42979;DHT22;28616;44.746;19.678;2023-03-14T12:05:30;20.80;39.10
42979;DHT22;28616;44.746;19.678;2023-03-14T12:10:51;20.70;39.20
42979;DHT22;28616;44.746;19.678;2023-03-14T12:13:18;20.70;38.70
42979;DHT22;28616;44.746;19.678;2023-03-14T12:15:59;20.70;38.60
42979;DHT22;28616;44.746;19.678;2023-03-14T12:18:33;20.50;37.70
42979;DHT22;28616;44.746;19.678;2023-03-14T12:21:05;20.30;37.70
42979;DHT22;28616;44.746;19.678;2023-03-14T12:23:51;20.30;39.10
42979;DHT22;28616;44.746;19.678;2023-03-14T12:26:25;20.20;39.30
42979;DHT22;28616;44.746;19.678;2023-03-14T12:29:18;20.20;41.10
42979;DHT22;28616;44.746;19.678;2023-03-14T12:31:47;20.00;39.80
42979;DHT22;28616;44.746;19.678;2023-03-14T12:41:46;19.80;40.20
42979;DHT22;28616;44.746;19.678;2023-03-14T12:49:47;19.80;40.70
42979;DHT22;28616;44.746;19.678;2023-03-14T12:52:19;20.00;41.00
42979;DHT22;28616;44.746;19.678;2023-03-14T12:55:08;20.20;41.30
42979;DHT22;28616;44.746;19.678;2023-03-14T12:58:05;20.40;41.30
42979;DHT22;28616;44.746;19.678;2023-03-14T13:00:35;20.50;41.90
42979;DHT22;28616;44.746;19.678;2023-03-14T13:03:49;20.60;40.70
42979;DHT22;28616;44.746;19.678;2023-03-14T13:06:44;20.70;40.80
42979;DHT22;28616;44.746;19.678;2023-03-14T13:09:52;20.60;39.70
42979;DHT22;28616;44.746;19.678;2023-03-14T13:12:23;20.60;40.70
42979;DHT22;28616;44.746;19.678;2023-03-14T13:14:53;20.70;39.80
42979;DHT22;28616;44.746;19.678;2023-03-14T13:17:33;20.60;40.60
42979;DHT22;28616;44.746;19.678;2023-03-14T13:20:03;20.70;40.10
42979;DHT22;28616;44.746;19.678;2023-03-14T13:22:33;20.70;40.40
42979;DHT22;28616;44.746;19.678;2023-03-14T13:25:02;20.80;40.00
42979;DHT22;28616;44.746;19.678;2023-03-14T13:27:30;21.10;39.40
42979;DHT22;28616;44.746;19.678;2023-03-14T13:29:57;21.20;40.10
42979;DHT22;28616;44.746;19.678;2023-03-14T13:32:27;21.20;39.60
42979;DHT22;28616;44.746;19.678;2023-03-14T13:34:56;21.10;38.80
42979;DHT22;28616;44.746;19.678;2023-03-14T13:37:24;21.10;39.70
42979;DHT22;28616;44.746;19.678;2023-03-14T13:39:54;21.00;39.60
42979;DHT22;28616;44.746;19.678;2023-03-14T13:42:24;21.00;39.50
42979;DHT22;28616;44.746;19.678;2023-03-14T13:44:52;21.10;40.30
42979;DHT22;28616;44.746;19.678;2023-03-14T13:47:20;21.10;38.70
42979;DHT22;28616;44.746;19.678;2023-03-14T13:49:48;21.10;38.90
42979;DHT22;28616;44.746;19.678;2023-03-14T13:52:37;21.40;37.40
42979;DHT22;28616;44.746;19.678;2023-03-14T13:55:05;21.70;37.40
42979;DHT22;28616;44.746;19.678;2023-03-14T13:57:53;21.90;36.10
42979;DHT22;28616;44.746;19.678;2023-03-14T14:00:24;22.40;34.30
42979;DHT22;28616;44.746;19.678;2023-03-14T14:02:54;22.40;34.30
42979;DHT22;28616;44.746;19.678;2023-03-14T14:05:21;22.70;35.20
42979;DHT22;28616;44.746;19.678;2023-03-14T14:07:49;22.80;33.70
42979;DHT22;28616;44.746;19.678;2023-03-14T14:10:18;23.00;31.80
42979;DHT22;28616;44.746;19.678;2023-03-14T14:15:26;23.20;28.60
42979;DHT22;28616;44.746;19.678;2023-03-14T14:20:23;23.20;27.20
42979;DHT22;28616;44.746;19.678;2023-03-14T14:22:57;23.40;30.20
42979;DHT22;28616;44.746;19.678;2023-03-14T14:25:23;23.30;29.30
42979;DHT22;28616;44.746;19.678;2023-03-14T14:27:49;23.20;27.50
42979;DHT22;28616;44.746;19.678;2023-03-14T14:32:46;23.10;28.00
42979;DHT22;28616;44.746;19.678;2023-03-14T14:35:30;23.00;27.70
42979;DHT22;28616;44.746;19.678;2023-03-14T14:37:56;22.80;27.80
42979;DHT22;28616;44.746;19.678;2023-03-14T14:40:24;22.80;28.20
42979;DHT22;28616;44.746;19.678;2023-03-14T14:42:50;22.70;28.80
42979;DHT22;28616;44.746;19.678;2023-03-14T14:45:19;22.50;29.50
42979;DHT22;28616;44.746;19.678;2023-03-14T14:47:54;22.40;28.70
42979;DHT22;28616;44.746;19.678;2023-03-14T14:50:32;22.20;27.30
42979;DHT22;28616;44.746;19.678;2023-03-14T14:53:03;22.10;26.70
42979;DHT22;28616;44.746;19.678;2023-03-14T14:55:44;22.10;26.80
42979;DHT22;28616;44.746;19.678;2023-03-14T14:58:48;21.80;26.20
42979;DHT22;28616;44.746;19.678;2023-03-14T15:03:43;21.60;27.40
42979;DHT22;28616;44.746;19.678;2023-03-14T15:06:14;21.50;27.60
42979;DHT22;28616;44.746;19.678;2023-03-14T15:08:43;21.40;26.20
42979;DHT22;28616;44.746;19.678;2023-03-14T15:11:17;21.30;26.90
42979;DHT22;28616;44.746;19.678;2023-03-14T15:13:43;21.10;27.00
42979;DHT22;28616;44.746;19.678;2023-03-14T15:16:12;20.90;27.20
42979;DHT22;28616;44.746;19.678;2023-03-14T15:18:39;20.90;26.90
42979;DHT22;28616;44.746;19.678;2023-03-14T15:21:05;20.80;27.80
42979;DHT22;28616;44.746;19.678;2023-03-14T15:23:31;20.70;28.60
42979;DHT22;28616;44.746;19.678;2023-03-14T15:25:57;20.70;28.60
42979;DHT22;28616;44.746;19.678;2023-03-14T15:28:27;20.60;28.40
42979;DHT22;28616;44.746;19.678;2023-03-14T15:30:55;20.50;29.00
42979;DHT22;28616;44.746;19.678;2023-03-14T15:33:22;20.40;29.60
42979;DHT22;28616;44.746;19.678;2023-03-14T15:35:48;20.30;30.10
42979;DHT22;28616;44.746;19.678;2023-03-14T15:38:16;20.10;30.50
42979;DHT22;28616;44.746;19.678;2023-03-14T15:40:42;20.20;30.00
42979;DHT22;28616;44.746;19.678;2023-03-14T15:43:09;20.10;30.30
42979;DHT22;28616;44.746;19.678;2023-03-14T15:45:35;20.00;30.20
42979;DHT22;28616;44.746;19.678;2023-03-14T15:48:00;20.10;29.40
42979;DHT22;28616;44.746;19.678;2023-03-14T15:50:26;20.00;30.00
42979;DHT22;28616;44.746;19.678;2023-03-14T15:52:52;19.90;31.00
42979;DHT22;28616;44.746;19.678;2023-03-14T15:55:18;19.80;30.80
42979;DHT22;28616;44.746;19.678;2023-03-14T15:57:44;19.80;31.20
42979;DHT22;28616;44.746;19.678;2023-03-14T16:00:16;19.80;30.60
42979;DHT22;28616;44.746;19.678;2023-03-14T16:02:44;19.50;31.70
42979;DHT22;28616;44.746;19.678;2023-03-14T16:05:11;19.50;32.60
42979;DHT22;28616;44.746;19.678;2023-03-14T16:07:37;19.40;33.30
42979;DHT22;28616;44.746;19.678;2023-03-14T16:10:04;19.30;33.50
42979;DHT22;28616;44.746;19.678;2023-03-14T16:12:31;19.20;34.20
42979;DHT22;28616;44.746;19.678;2023-03-14T16:14:56;19.00;34.80
42979;DHT22;28616;44.746;19.678;2023-03-14T16:17:22;18.90;35.10
42979;DHT22;28616;44.746;19.678;2023-03-14T16:19:48;18.70;35.40
42979;DHT22;28616;44.746;19.678;2023-03-14T16:22:13;18.60;35.40
42979;DHT22;28616;44.746;19.678;2023-03-14T16:24:39;18.50;35.80
42979;DHT22;28616;44.746;19.678;2023-03-14T16:27:05;18.30;36.10
42979;DHT22;28616;44.746;19.678;2023-03-14T16:29:31;18.20;36.50
42979;DHT22;28616;44.746;19.678;2023-03-14T16:31:56;18.00;37.20
42979;DHT22;28616;44.746;19.678;2023-03-14T16:34:22;17.90;37.50
42979;DHT22;28616;44.746;19.678;2023-03-14T16:36:48;17.80;37.90
42979;DHT22;28616;44.746;19.678;2023-03-14T16:39:19;17.80;38.50